Terminal Aerodrome Forecast
Issued by NWS La Crosse, WI

Home | Current Version | Previous Version | Text Only | Print | Product List | Glossary On
Versions: 1 2 3 4 5 6 7 8 9 10 11 12 13 14 15 16 17 18 19 20 21 22 23 24 25 26 27 28 29 30 31 32 33 34 35 36 37 38 39 40 41 42 43 44 45 46 47 48 49 50
000
FTUS43 KARX 220520
TAFRST
TAF
KRST 220520Z 2206/2306 26006KT 1SM BR OVC008
      TEMPO 2206/2208 1/2SM FG OVC006
     FM220800 29006KT 1/4SM FG VV002
     FM221500 31005KT 3/4SM BR OVC003
     FM222000 31009KT 2SM BR OVC003
     FM230000 31010KT 6SM BR OVC003=

USA.gov is the U.S. government's official web portal to all federal, state and local government web resources and services.